sensor_id;sensor_type;location;lat;lon;timestamp;P1;durP1;ratioP1;P2;durP2;ratioP2
75774;SDS011;64505;51.458;7.556;2023-12-20T00:00:16;19.40;;;11.23;;
75774;SDS011;64505;51.458;7.556;2023-12-20T00:02:18;17.95;;;10.15;;
75774;SDS011;64505;51.458;7.556;2023-12-20T00:04:20;21.38;;;10.93;;
75774;SDS011;64505;51.458;7.556;2023-12-20T00:06:21;21.20;;;11.27;;
75774;SDS011;64505;51.458;7.556;2023-12-20T00:08:23;18.63;;;10.30;;
75774;SDS011;64505;51.458;7.556;2023-12-20T00:10:24;19.15;;;10.85;;
75774;SDS011;64505;51.458;7.556;2023-12-20T00:12:26;21.15;;;11.07;;
75774;SDS011;64505;51.458;7.556;2023-12-20T00:14:27;21.70;;;11.70;;
75774;SDS011;64505;51.458;7.556;2023-12-20T00:16:29;22.17;;;11.93;;
75774;SDS011;64505;51.458;7.556;2023-12-20T00:18:32;19.92;;;11.45;;
75774;SDS011;64505;51.458;7.556;2023-12-20T00:20:34;21.27;;;11.63;;
75774;SDS011;64505;51.458;7.556;2023-12-20T00:22:35;22.73;;;11.85;;
75774;SDS011;64505;51.458;7.556;2023-12-20T00:24:37;22.50;;;11.93;;
75774;SDS011;64505;51.458;7.556;2023-12-20T00:26:38;22.27;;;12.13;;
75774;SDS011;64505;51.458;7.556;2023-12-20T00:28:40;21.42;;;10.98;;
75774;SDS011;64505;51.458;7.556;2023-12-20T00:30:41;22.35;;;11.85;;
75774;SDS011;64505;51.458;7.556;2023-12-20T00:32:43;19.67;;;10.68;;
75774;SDS011;64505;51.458;7.556;2023-12-20T00:34:47;22.48;;;11.57;;
75774;SDS011;64505;51.458;7.556;2023-12-20T00:36:49;18.95;;;10.82;;
75774;SDS011;64505;51.458;7.556;2023-12-20T00:38:50;21.27;;;10.30;;
75774;SDS011;64505;51.458;7.556;2023-12-20T00:40:53;15.98;;;9.75;;
75774;SDS011;64505;51.458;7.556;2023-12-20T00:42:54;18.20;;;9.65;;
75774;SDS011;64505;51.458;7.556;2023-12-20T00:44:56;17.88;;;9.85;;
75774;SDS011;64505;51.458;7.556;2023-12-20T00:46:57;17.95;;;9.70;;
75774;SDS011;64505;51.458;7.556;2023-12-20T00:48:59;15.82;;;9.05;;
75774;SDS011;64505;51.458;7.556;2023-12-20T00:51:00;17.98;;;10.00;;
75774;SDS011;64505;51.458;7.556;2023-12-20T00:53:02;21.05;;;9.30;;
75774;SDS011;64505;51.458;7.556;2023-12-20T00:55:04;15.23;;;9.05;;
75774;SDS011;64505;51.458;7.556;2023-12-20T00:57:06;18.08;;;8.35;;
75774;SDS011;64505;51.458;7.556;2023-12-20T00:59:07;14.88;;;8.27;;
75774;SDS011;64505;51.458;7.556;2023-12-20T01:01:08;17.40;;;9.13;;
75774;SDS011;64505;51.458;7.556;2023-12-20T01:03:10;16.08;;;7.68;;
75774;SDS011;64505;51.458;7.556;2023-12-20T01:05:12;13.70;;;7.38;;
75774;SDS011;64505;51.458;7.556;2023-12-20T01:07:13;16.25;;;7.32;;
75774;SDS011;64505;51.458;7.556;2023-12-20T01:09:15;13.95;;;6.78;;
75774;SDS011;64505;51.458;7.556;2023-12-20T01:11:16;13.80;;;7.30;;
75774;SDS011;64505;51.458;7.556;2023-12-20T01:13:18;12.63;;;5.82;;
75774;SDS011;64505;51.458;7.556;2023-12-20T01:15:20;12.07;;;5.38;;
75774;SDS011;64505;51.458;7.556;2023-12-20T01:17:21;8.18;;;4.20;;
75774;SDS011;64505;51.458;7.556;2023-12-20T01:19:24;9.60;;;4.20;;
75774;SDS011;64505;51.458;7.556;2023-12-20T01:21:26;9.32;;;4.10;;
75774;SDS011;64505;51.458;7.556;2023-12-20T01:23:27;9.95;;;3.60;;
75774;SDS011;64505;51.458;7.556;2023-12-20T01:25:29;7.60;;;3.67;;
75774;SDS011;64505;51.458;7.556;2023-12-20T01:27:30;7.55;;;3.90;;
75774;SDS011;64505;51.458;7.556;2023-12-20T01:29:32;8.15;;;2.45;;
75774;SDS011;64505;51.458;7.556;2023-12-20T01:31:33;8.05;;;3.50;;
75774;SDS011;64505;51.458;7.556;2023-12-20T01:33:35;10.57;;;3.58;;
75774;SDS011;64505;51.458;7.556;2023-12-20T01:35:36;8.48;;;3.58;;
75774;SDS011;64505;51.458;7.556;2023-12-20T01:37:38;11.55;;;4.13;;
75774;SDS011;64505;51.458;7.556;2023-12-20T01:39:40;9.95;;;3.67;;
75774;SDS011;64505;51.458;7.556;2023-12-20T01:41:41;12.48;;;4.10;;
75774;SDS011;64505;51.458;7.556;2023-12-20T01:43:43;10.80;;;3.95;;
75774;SDS011;64505;51.458;7.556;2023-12-20T01:45:52;10.85;;;3.95;;
75774;SDS011;64505;51.458;7.556;2023-12-20T01:47:54;11.07;;;3.28;;
75774;SDS011;64505;51.458;7.556;2023-12-20T01:49:57;8.27;;;3.45;;
75774;SDS011;64505;51.458;7.556;2023-12-20T01:51:58;9.57;;;4.03;;
75774;SDS011;64505;51.458;7.556;2023-12-20T01:54:00;14.57;;;4.43;;
75774;SDS011;64505;51.458;7.556;2023-12-20T01:56:02;10.50;;;3.63;;
75774;SDS011;64505;51.458;7.556;2023-12-20T01:58:04;12.13;;;4.20;;
75774;SDS011;64505;51.458;7.556;2023-12-20T02:00:06;13.10;;;4.90;;
75774;SDS011;64505;51.458;7.556;2023-12-20T02:02:09;11.45;;;4.60;;
75774;SDS011;64505;51.458;7.556;2023-12-20T02:04:13;8.98;;;4.25;;
75774;SDS011;64505;51.458;7.556;2023-12-20T02:06:15;12.52;;;4.47;;
75774;SDS011;64505;51.458;7.556;2023-12-20T02:08:17;9.23;;;4.47;;
75774;SDS011;64505;51.458;7.556;2023-12-20T02:10:19;16.02;;;4.43;;
75774;SDS011;64505;51.458;7.556;2023-12-20T02:12:20;10.07;;;3.35;;
75774;SDS011;64505;51.458;7.556;2023-12-20T02:14:23;14.45;;;4.55;;
75774;SDS011;64505;51.458;7.556;2023-12-20T02:16:24;11.00;;;3.90;;
75774;SDS011;64505;51.458;7.556;2023-12-20T02:18:26;13.10;;;4.82;;
75774;SDS011;64505;51.458;7.556;2023-12-20T02:20:27;8.27;;;3.70;;
75774;SDS011;64505;51.458;7.556;2023-12-20T02:22:29;10.43;;;4.38;;
75774;SDS011;64505;51.458;7.556;2023-12-20T02:24:30;9.10;;;4.05;;
75774;SDS011;64505;51.458;7.556;2023-12-20T02:26:32;11.98;;;4.65;;
75774;SDS011;64505;51.458;7.556;2023-12-20T02:28:35;13.10;;;4.50;;
75774;SDS011;64505;51.458;7.556;2023-12-20T02:30:37;13.30;;;4.32;;
75774;SDS011;64505;51.458;7.556;2023-12-20T02:32:38;11.07;;;4.50;;
75774;SDS011;64505;51.458;7.556;2023-12-20T02:34:40;9.45;;;4.28;;
75774;SDS011;64505;51.458;7.556;2023-12-20T02:36:42;17.50;;;4.65;;
75774;SDS011;64505;51.458;7.556;2023-12-20T02:38:43;12.95;;;4.35;;
75774;SDS011;64505;51.458;7.556;2023-12-20T02:40:45;10.55;;;3.88;;
75774;SDS011;64505;51.458;7.556;2023-12-20T02:42:50;9.98;;;3.70;;
75774;SDS011;64505;51.458;7.556;2023-12-20T02:44:51;11.73;;;4.07;;
75774;SDS011;64505;51.458;7.556;2023-12-20T02:46:53;10.30;;;4.05;;
75774;SDS011;64505;51.458;7.556;2023-12-20T02:48:54;9.70;;;3.22;;
75774;SDS011;64505;51.458;7.556;2023-12-20T02:50:56;12.30;;;3.40;;
75774;SDS011;64505;51.458;7.556;2023-12-20T02:52:57;8.63;;;2.78;;
75774;SDS011;64505;51.458;7.556;2023-12-20T02:54:59;8.23;;;3.08;;
75774;SDS011;64505;51.458;7.556;2023-12-20T02:57:00;9.85;;;3.35;;
75774;SDS011;64505;51.458;7.556;2023-12-20T02:59:02;10.60;;;3.33;;
75774;SDS011;64505;51.458;7.556;2023-12-20T03:01:06;11.73;;;3.80;;
75774;SDS011;64505;51.458;7.556;2023-12-20T03:03:08;9.95;;;3.25;;
75774;SDS011;64505;51.458;7.556;2023-12-20T03:05:09;9.80;;;3.28;;
75774;SDS011;64505;51.458;7.556;2023-12-20T03:07:11;10.27;;;3.70;;
75774;SDS011;64505;51.458;7.556;2023-12-20T03:09:13;11.27;;;4.00;;
75774;SDS011;64505;51.458;7.556;2023-12-20T03:11:15;15.65;;;4.35;;
75774;SDS011;64505;51.458;7.556;2023-12-20T03:13:16;10.90;;;4.10;;
75774;SDS011;64505;51.458;7.556;2023-12-20T03:15:18;12.73;;;4.65;;
75774;SDS011;64505;51.458;7.556;2023-12-20T03:17:19;11.88;;;5.07;;
75774;SDS011;64505;51.458;7.556;2023-12-20T03:19:21;9.57;;;4.50;;
75774;SDS011;64505;51.458;7.556;2023-12-20T03:21:23;12.07;;;4.72;;
75774;SDS011;64505;51.458;7.556;2023-12-20T03:23:25;10.98;;;5.55;;
75774;SDS011;64505;51.458;7.556;2023-12-20T03:25:27;12.23;;;5.35;;
75774;SDS011;64505;51.458;7.556;2023-12-20T03:27:29;10.90;;;4.50;;
75774;SDS011;64505;51.458;7.556;2023-12-20T03:29:30;14.05;;;5.43;;
75774;SDS011;64505;51.458;7.556;2023-12-20T03:31:32;13.63;;;4.70;;
75774;SDS011;64505;51.458;7.556;2023-12-20T03:33:33;12.63;;;5.47;;
75774;SDS011;64505;51.458;7.556;2023-12-20T03:35:35;15.13;;;4.70;;
75774;SDS011;64505;51.458;7.556;2023-12-20T03:37:36;13.75;;;4.63;;
75774;SDS011;64505;51.458;7.556;2023-12-20T03:39:38;14.00;;;4.65;;
75774;SDS011;64505;51.458;7.556;2023-12-20T03:41:39;13.82;;;5.40;;
75774;SDS011;64505;51.458;7.556;2023-12-20T03:43:41;12.80;;;5.13;;
75774;SDS011;64505;51.458;7.556;2023-12-20T03:45:42;14.05;;;5.60;;
75774;SDS011;64505;51.458;7.556;2023-12-20T03:47:44;18.02;;;4.90;;
75774;SDS011;64505;51.458;7.556;2023-12-20T03:49:46;14.45;;;5.43;;
75774;SDS011;64505;51.458;7.556;2023-12-20T03:51:48;16.55;;;5.53;;
75774;SDS011;64505;51.458;7.556;2023-12-20T03:53:49;11.45;;;4.13;;
75774;SDS011;64505;51.458;7.556;2023-12-20T03:55:51;13.30;;;4.55;;
75774;SDS011;64505;51.458;7.556;2023-12-20T03:57:52;13.90;;;5.20;;
75774;SDS011;64505;51.458;7.556;2023-12-20T03:59:54;16.40;;;5.13;;
75774;SDS011;64505;51.458;7.556;2023-12-20T04:01:56;10.95;;;5.78;;
75774;SDS011;64505;51.458;7.556;2023-12-20T04:03:57;11.63;;;4.35;;
75774;SDS011;64505;51.458;7.556;2023-12-20T04:05:59;13.60;;;4.30;;
75774;SDS011;64505;51.458;7.556;2023-12-20T04:08:01;12.70;;;4.95;;
75774;SDS011;64505;51.458;7.556;2023-12-20T04:10:03;14.30;;;4.88;;
75774;SDS011;64505;51.458;7.556;2023-12-20T04:12:05;14.30;;;5.03;;
75774;SDS011;64505;51.458;7.556;2023-12-20T04:14:07;14.35;;;5.15;;
75774;SDS011;64505;51.458;7.556;2023-12-20T04:16:09;14.73;;;5.00;;
75774;SDS011;64505;51.458;7.556;2023-12-20T04:18:10;14.05;;;4.85;;
75774;SDS011;64505;51.458;7.556;2023-12-20T04:20:12;13.95;;;4.50;;
75774;SDS011;64505;51.458;7.556;2023-12-20T04:22:13;11.10;;;4.35;;
75774;SDS011;64505;51.458;7.556;2023-12-20T04:24:15;13.38;;;4.10;;
75774;SDS011;64505;51.458;7.556;2023-12-20T04:26:17;11.05;;;4.50;;
75774;SDS011;64505;51.458;7.556;2023-12-20T04:28:18;18.40;;;4.28;;
75774;SDS011;64505;51.458;7.556;2023-12-20T04:30:20;14.50;;;4.32;;
75774;SDS011;64505;51.458;7.556;2023-12-20T04:32:21;13.50;;;3.67;;
75774;SDS011;64505;51.458;7.556;2023-12-20T04:34:23;11.48;;;4.30;;
75774;SDS011;64505;51.458;7.556;2023-12-20T04:36:24;12.85;;;3.80;;
75774;SDS011;64505;51.458;7.556;2023-12-20T04:38:28;14.85;;;4.70;;
75774;SDS011;64505;51.458;7.556;2023-12-20T04:40:29;13.07;;;4.55;;
75774;SDS011;64505;51.458;7.556;2023-12-20T04:42:31;16.85;;;4.75;;
75774;SDS011;64505;51.458;7.556;2023-12-20T04:44:32;11.95;;;4.35;;
75774;SDS011;64505;51.458;7.556;2023-12-20T04:46:34;13.20;;;4.65;;
75774;SDS011;64505;51.458;7.556;2023-12-20T04:48:35;17.13;;;4.60;;
75774;SDS011;64505;51.458;7.556;2023-12-20T04:50:37;12.02;;;4.43;;
75774;SDS011;64505;51.458;7.556;2023-12-20T04:52:38;15.60;;;4.97;;
75774;SDS011;64505;51.458;7.556;2023-12-20T04:54:40;11.40;;;4.88;;
75774;SDS011;64505;51.458;7.556;2023-12-20T04:56:45;16.02;;;5.35;;
75774;SDS011;64505;51.458;7.556;2023-12-20T04:58:46;19.30;;;5.80;;
75774;SDS011;64505;51.458;7.556;2023-12-20T05:00:48;15.98;;;5.43;;
75774;SDS011;64505;51.458;7.556;2023-12-20T05:02:49;18.58;;;5.57;;
75774;SDS011;64505;51.458;7.556;2023-12-20T05:04:51;15.70;;;5.80;;
75774;SDS011;64505;51.458;7.556;2023-12-20T05:06:56;18.08;;;6.40;;
75774;SDS011;64505;51.458;7.556;2023-12-20T05:08:57;13.07;;;5.35;;
75774;SDS011;64505;51.458;7.556;2023-12-20T05:10:59;17.55;;;5.32;;
75774;SDS011;64505;51.458;7.556;2023-12-20T05:13:01;13.30;;;5.63;;
75774;SDS011;64505;51.458;7.556;2023-12-20T05:15:02;14.98;;;6.03;;
75774;SDS011;64505;51.458;7.556;2023-12-20T05:17:04;16.90;;;5.68;;
75774;SDS011;64505;51.458;7.556;2023-12-20T05:19:06;17.10;;;5.65;;
75774;SDS011;64505;51.458;7.556;2023-12-20T05:21:08;16.13;;;5.18;;
75774;SDS011;64505;51.458;7.556;2023-12-20T05:23:10;7.65;;;3.83;;
75774;SDS011;64505;51.458;7.556;2023-12-20T05:25:12;17.75;;;5.75;;
75774;SDS011;64505;51.458;7.556;2023-12-20T05:27:14;15.63;;;4.72;;
75774;SDS011;64505;51.458;7.556;2023-12-20T05:29:15;13.73;;;4.93;;
75774;SDS011;64505;51.458;7.556;2023-12-20T05:31:18;10.75;;;3.53;;
75774;SDS011;64505;51.458;7.556;2023-12-20T05:33:19;14.32;;;4.75;;
75774;SDS011;64505;51.458;7.556;2023-12-20T05:35:21;12.63;;;5.00;;
75774;SDS011;64505;51.458;7.556;2023-12-20T05:37:24;17.23;;;5.53;;
75774;SDS011;64505;51.458;7.556;2023-12-20T05:39:26;15.15;;;6.25;;
75774;SDS011;64505;51.458;7.556;2023-12-20T05:41:27;12.05;;;5.43;;
75774;SDS011;64505;51.458;7.556;2023-12-20T05:43:29;14.88;;;5.15;;
75774;SDS011;64505;51.458;7.556;2023-12-20T05:45:30;13.73;;;4.93;;
75774;SDS011;64505;51.458;7.556;2023-12-20T05:47:32;16.13;;;5.95;;
75774;SDS011;64505;51.458;7.556;2023-12-20T05:49:33;17.73;;;5.78;;
75774;SDS011;64505;51.458;7.556;2023-12-20T05:51:35;16.58;;;5.55;;
75774;SDS011;64505;51.458;7.556;2023-12-20T05:53:36;11.13;;;5.25;;
75774;SDS011;64505;51.458;7.556;2023-12-20T05:55:38;12.77;;;4.75;;
75774;SDS011;64505;51.458;7.556;2023-12-20T05:57:39;12.35;;;4.93;;
75774;SDS011;64505;51.458;7.556;2023-12-20T05:59:41;11.82;;;4.70;;
75774;SDS011;64505;51.458;7.556;2023-12-20T06:01:42;18.90;;;5.57;;
75774;SDS011;64505;51.458;7.556;2023-12-20T06:03:44;11.32;;;5.15;;
75774;SDS011;64505;51.458;7.556;2023-12-20T06:05:47;15.07;;;4.93;;
75774;SDS011;64505;51.458;7.556;2023-12-20T06:07:48;16.48;;;4.45;;
75774;SDS011;64505;51.458;7.556;2023-12-20T06:09:52;14.85;;;4.68;;
75774;SDS011;64505;51.458;7.556;2023-12-20T06:11:53;14.18;;;4.68;;
75774;SDS011;64505;51.458;7.556;2023-12-20T06:13:55;16.40;;;4.68;;
75774;SDS011;64505;51.458;7.556;2023-12-20T06:15:56;15.45;;;4.93;;
75774;SDS011;64505;51.458;7.556;2023-12-20T06:17:58;16.10;;;5.57;;
75774;SDS011;64505;51.458;7.556;2023-12-20T06:20:00;22.58;;;5.22;;
75774;SDS011;64505;51.458;7.556;2023-12-20T06:22:02;15.77;;;5.93;;
75774;SDS011;64505;51.458;7.556;2023-12-20T06:24:04;16.73;;;5.45;;
75774;SDS011;64505;51.458;7.556;2023-12-20T06:26:05;14.38;;;5.38;;
75774;SDS011;64505;51.458;7.556;2023-12-20T06:28:07;17.05;;;5.07;;
75774;SDS011;64505;51.458;7.556;2023-12-20T06:30:11;18.15;;;5.85;;
75774;SDS011;64505;51.458;7.556;2023-12-20T06:32:13;18.73;;;6.05;;
75774;SDS011;64505;51.458;7.556;2023-12-20T06:34:14;13.23;;;5.43;;
75774;SDS011;64505;51.458;7.556;2023-12-20T06:36:16;14.52;;;5.95;;
75774;SDS011;64505;51.458;7.556;2023-12-20T06:38:17;17.10;;;5.68;;
75774;SDS011;64505;51.458;7.556;2023-12-20T06:40:19;19.10;;;6.43;;
75774;SDS011;64505;51.458;7.556;2023-12-20T06:42:21;16.65;;;5.60;;
75774;SDS011;64505;51.458;7.556;2023-12-20T06:44:23;19.17;;;6.32;;
75774;SDS011;64505;51.458;7.556;2023-12-20T06:46:24;14.23;;;5.30;;
75774;SDS011;64505;51.458;7.556;2023-12-20T06:48:26;17.42;;;5.78;;
75774;SDS011;64505;51.458;7.556;2023-12-20T06:50:28;15.25;;;6.20;;
75774;SDS011;64505;51.458;7.556;2023-12-20T06:52:29;25.88;;;7.43;;
75774;SDS011;64505;51.458;7.556;2023-12-20T06:54:30;12.65;;;5.18;;
75774;SDS011;64505;51.458;7.556;2023-12-20T06:56:32;13.60;;;5.07;;
75774;SDS011;64505;51.458;7.556;2023-12-20T06:58:34;16.65;;;6.00;;
75774;SDS011;64505;51.458;7.556;2023-12-20T07:00:35;19.52;;;5.50;;
75774;SDS011;64505;51.458;7.556;2023-12-20T07:02:37;15.23;;;5.35;;
75774;SDS011;64505;51.458;7.556;2023-12-20T07:04:39;14.40;;;4.75;;
75774;SDS011;64505;51.458;7.556;2023-12-20T07:06:43;15.80;;;4.65;;
75774;SDS011;64505;51.458;7.556;2023-12-20T07:08:45;12.68;;;5.18;;
75774;SDS011;64505;51.458;7.556;2023-12-20T07:10:46;17.67;;;5.32;;
75774;SDS011;64505;51.458;7.556;2023-12-20T07:12:48;18.17;;;5.05;;
75774;SDS011;64505;51.458;7.556;2023-12-20T07:14:50;17.50;;;4.05;;
75774;SDS011;64505;51.458;7.556;2023-12-20T07:16:51;15.07;;;4.75;;
75774;SDS011;64505;51.458;7.556;2023-12-20T07:18:53;18.73;;;4.32;;
75774;SDS011;64505;51.458;7.556;2023-12-20T07:20:55;15.18;;;4.97;;
75774;SDS011;64505;51.458;7.556;2023-12-20T07:22:56;18.58;;;4.93;;
75774;SDS011;64505;51.458;7.556;2023-12-20T07:24:58;11.40;;;5.13;;
75774;SDS011;64505;51.458;7.556;2023-12-20T07:27:00;13.13;;;4.82;;
75774;SDS011;64505;51.458;7.556;2023-12-20T07:29:02;16.70;;;4.82;;
75774;SDS011;64505;51.458;7.556;2023-12-20T07:31:05;17.25;;;5.05;;
75774;SDS011;64505;51.458;7.556;2023-12-20T07:33:06;16.17;;;5.53;;
75774;SDS011;64505;51.458;7.556;2023-12-20T07:35:10;18.70;;;4.88;;
75774;SDS011;64505;51.458;7.556;2023-12-20T07:37:12;18.92;;;5.00;;
75774;SDS011;64505;51.458;7.556;2023-12-20T07:39:14;16.02;;;5.15;;
75774;SDS011;64505;51.458;7.556;2023-12-20T07:41:16;11.10;;;4.05;;
75774;SDS011;64505;51.458;7.556;2023-12-20T07:43:17;13.63;;;4.57;;
75774;SDS011;64505;51.458;7.556;2023-12-20T07:45:19;16.58;;;5.22;;
75774;SDS011;64505;51.458;7.556;2023-12-20T07:47:21;12.88;;;4.47;;
75774;SDS011;64505;51.458;7.556;2023-12-20T07:49:23;10.70;;;3.80;;
75774;SDS011;64505;51.458;7.556;2023-12-20T07:51:25;15.00;;;4.47;;
75774;SDS011;64505;51.458;7.556;2023-12-20T07:53:26;11.75;;;4.78;;
75774;SDS011;64505;51.458;7.556;2023-12-20T07:55:28;18.98;;;4.57;;
75774;SDS011;64505;51.458;7.556;2023-12-20T07:57:31;9.93;;;3.55;;
75774;SDS011;64505;51.458;7.556;2023-12-20T07:59:33;15.13;;;4.82;;
75774;SDS011;64505;51.458;7.556;2023-12-20T08:01:34;13.60;;;4.15;;
75774;SDS011;64505;51.458;7.556;2023-12-20T08:03:36;14.57;;;4.60;;
75774;SDS011;64505;51.458;7.556;2023-12-20T08:05:37;14.48;;;4.68;;
75774;SDS011;64505;51.458;7.556;2023-12-20T08:07:41;11.95;;;4.05;;
75774;SDS011;64505;51.458;7.556;2023-12-20T08:09:42;10.75;;;3.90;;
75774;SDS011;64505;51.458;7.556;2023-12-20T08:11:48;10.23;;;4.05;;
75774;SDS011;64505;51.458;7.556;2023-12-20T08:13:50;14.50;;;4.68;;
75774;SDS011;64505;51.458;7.556;2023-12-20T08:15:52;14.80;;;4.75;;
75774;SDS011;64505;51.458;7.556;2023-12-20T08:17:54;18.17;;;4.55;;
75774;SDS011;64505;51.458;7.556;2023-12-20T08:19:56;15.73;;;4.97;;
75774;SDS011;64505;51.458;7.556;2023-12-20T08:21:57;16.45;;;5.50;;
75774;SDS011;64505;51.458;7.556;2023-12-20T08:23:59;14.52;;;4.43;;
75774;SDS011;64505;51.458;7.556;2023-12-20T08:26:05;17.15;;;4.65;;
75774;SDS011;64505;51.458;7.556;2023-12-20T08:28:07;16.08;;;4.78;;
75774;SDS011;64505;51.458;7.556;2023-12-20T08:30:09;15.93;;;5.00;;
75774;SDS011;64505;51.458;7.556;2023-12-20T08:32:11;20.70;;;5.97;;
75774;SDS011;64505;51.458;7.556;2023-12-20T08:34:12;14.35;;;5.07;;
75774;SDS011;64505;51.458;7.556;2023-12-20T08:36:16;18.23;;;4.95;;
75774;SDS011;64505;51.458;7.556;2023-12-20T08:38:19;13.43;;;5.15;;
75774;SDS011;64505;51.458;7.556;2023-12-20T08:40:20;13.07;;;4.93;;
75774;SDS011;64505;51.458;7.556;2023-12-20T08:42:22;16.90;;;4.95;;
75774;SDS011;64505;51.458;7.556;2023-12-20T08:44:25;17.52;;;5.05;;
75774;SDS011;64505;51.458;7.556;2023-12-20T08:46:27;10.88;;;4.60;;
75774;SDS011;64505;51.458;7.556;2023-12-20T08:48:29;16.35;;;5.10;;
75774;SDS011;64505;51.458;7.556;2023-12-20T08:50:30;12.45;;;4.35;;
75774;SDS011;64505;51.458;7.556;2023-12-20T08:52:32;11.90;;;3.97;;
75774;SDS011;64505;51.458;7.556;2023-12-20T08:54:34;14.75;;;4.75;;
75774;SDS011;64505;51.458;7.556;2023-12-20T08:56:35;12.70;;;4.70;;
75774;SDS011;64505;51.458;7.556;2023-12-20T08:58:37;13.25;;;4.78;;
75774;SDS011;64505;51.458;7.556;2023-12-20T09:00:38;12.57;;;3.95;;
75774;SDS011;64505;51.458;7.556;2023-12-20T09:02:40;14.38;;;4.80;;
75774;SDS011;64505;51.458;7.556;2023-12-20T09:04:42;11.43;;;3.88;;
75774;SDS011;64505;51.458;7.556;2023-12-20T09:06:44;12.90;;;5.05;;
75774;SDS011;64505;51.458;7.556;2023-12-20T09:08:46;14.32;;;4.95;;
75774;SDS011;64505;51.458;7.556;2023-12-20T09:10:48;13.35;;;4.65;;
75774;SDS011;64505;51.458;7.556;2023-12-20T09:12:50;15.55;;;5.15;;
75774;SDS011;64505;51.458;7.556;2023-12-20T09:14:52;16.63;;;5.45;;
75774;SDS011;64505;51.458;7.556;2023-12-20T09:16:54;15.63;;;5.15;;
75774;SDS011;64505;51.458;7.556;2023-12-20T09:18:57;12.63;;;4.43;;
75774;SDS011;64505;51.458;7.556;2023-12-20T09:20:59;15.25;;;5.25;;
75774;SDS011;64505;51.458;7.556;2023-12-20T09:23:00;14.18;;;5.35;;
75774;SDS011;64505;51.458;7.556;2023-12-20T09:25:02;16.67;;;4.22;;
75774;SDS011;64505;51.458;7.556;2023-12-20T09:27:04;13.27;;;4.68;;
75774;SDS011;64505;51.458;7.556;2023-12-20T09:29:06;17.48;;;5.22;;
75774;SDS011;64505;51.458;7.556;2023-12-20T09:31:08;12.98;;;4.60;;
75774;SDS011;64505;51.458;7.556;2023-12-20T09:33:10;19.02;;;5.28;;
75774;SDS011;64505;51.458;7.556;2023-12-20T09:35:12;12.68;;;4.20;;
75774;SDS011;64505;51.458;7.556;2023-12-20T09:37:13;8.63;;;4.25;;
75774;SDS011;64505;51.458;7.556;2023-12-20T09:39:15;13.15;;;4.53;;
75774;SDS011;64505;51.458;7.556;2023-12-20T09:41:24;9.93;;;4.43;;
75774;SDS011;64505;51.458;7.556;2023-12-20T09:43:27;12.25;;;3.75;;
75774;SDS011;64505;51.458;7.556;2023-12-20T09:45:31;13.52;;;4.03;;
75774;SDS011;64505;51.458;7.556;2023-12-20T09:47:33;14.27;;;4.13;;
75774;SDS011;64505;51.458;7.556;2023-12-20T09:49:36;13.25;;;5.25;;
75774;SDS011;64505;51.458;7.556;2023-12-20T09:51:38;15.15;;;4.38;;
75774;SDS011;64505;51.458;7.556;2023-12-20T09:53:41;15.38;;;3.92;;
75774;SDS011;64505;51.458;7.556;2023-12-20T09:55:44;14.30;;;3.95;;
75774;SDS011;64505;51.458;7.556;2023-12-20T09:57:46;14.63;;;4.40;;
75774;SDS011;64505;51.458;7.556;2023-12-20T09:59:48;16.27;;;4.30;;
75774;SDS011;64505;51.458;7.556;2023-12-20T10:01:51;16.73;;;4.05;;
75774;SDS011;64505;51.458;7.556;2023-12-20T10:03:59;13.40;;;4.00;;
75774;SDS011;64505;51.458;7.556;2023-12-20T10:06:02;19.30;;;3.95;;
75774;SDS011;64505;51.458;7.556;2023-12-20T10:08:03;16.45;;;4.20;;
75774;SDS011;64505;51.458;7.556;2023-12-20T10:10:06;12.52;;;3.90;;
75774;SDS011;64505;51.458;7.556;2023-12-20T10:12:10;14.50;;;4.13;;
75774;SDS011;64505;51.458;7.556;2023-12-20T10:14:11;11.95;;;3.53;;
75774;SDS011;64505;51.458;7.556;2023-12-20T10:16:13;9.98;;;3.35;;
75774;SDS011;64505;51.458;7.556;2023-12-20T10:18:15;8.73;;;2.58;;
75774;SDS011;64505;51.458;7.556;2023-12-20T10:20:17;12.95;;;3.10;;
75774;SDS011;64505;51.458;7.556;2023-12-20T10:22:19;13.65;;;3.58;;
75774;SDS011;64505;51.458;7.556;2023-12-20T10:24:20;8.98;;;3.25;;
75774;SDS011;64505;51.458;7.556;2023-12-20T10:26:24;14.98;;;3.70;;
75774;SDS011;64505;51.458;7.556;2023-12-20T10:28:28;11.95;;;3.70;;
75774;SDS011;64505;51.458;7.556;2023-12-20T10:30:36;9.98;;;3.63;;
75774;SDS011;64505;51.458;7.556;2023-12-20T10:32:37;6.13;;;3.20;;
75774;SDS011;64505;51.458;7.556;2023-12-20T10:34:39;15.10;;;3.67;;
75774;SDS011;64505;51.458;7.556;2023-12-20T10:36:41;12.00;;;3.42;;
75774;SDS011;64505;51.458;7.556;2023-12-20T10:38:42;14.35;;;3.88;;
75774;SDS011;64505;51.458;7.556;2023-12-20T10:40:45;7.93;;;2.85;;
75774;SDS011;64505;51.458;7.556;2023-12-20T10:42:47;9.63;;;3.00;;
75774;SDS011;64505;51.458;7.556;2023-12-20T10:44:52;14.90;;;3.70;;
75774;SDS011;64505;51.458;7.556;2023-12-20T10:46:55;13.40;;;3.88;;
75774;SDS011;64505;51.458;7.556;2023-12-20T10:49:02;9.70;;;3.50;;
75774;SDS011;64505;51.458;7.556;2023-12-20T10:51:04;11.90;;;3.88;;
75774;SDS011;64505;51.458;7.556;2023-12-20T10:53:06;14.23;;;4.80;;
75774;SDS011;64505;51.458;7.556;2023-12-20T10:55:08;14.45;;;4.00;;
75774;SDS011;64505;51.458;7.556;2023-12-20T10:57:10;15.77;;;4.20;;
75774;SDS011;64505;51.458;7.556;2023-12-20T10:59:12;9.52;;;4.32;;
75774;SDS011;64505;51.458;7.556;2023-12-20T11:01:18;15.13;;;4.50;;
75774;SDS011;64505;51.458;7.556;2023-12-20T11:03:21;14.15;;;4.47;;
75774;SDS011;64505;51.458;7.556;2023-12-20T11:05:30;13.80;;;4.25;;
75774;SDS011;64505;51.458;7.556;2023-12-20T11:07:33;15.02;;;5.35;;
75774;SDS011;64505;51.458;7.556;2023-12-20T11:09:43;12.15;;;3.97;;
75774;SDS011;64505;51.458;7.556;2023-12-20T11:14:49;11.73;;;4.13;;
75774;SDS011;64505;51.458;7.556;2023-12-20T11:16:50;13.70;;;4.25;;
75774;SDS011;64505;51.458;7.556;2023-12-20T11:18:55;14.35;;;4.90;;
75774;SDS011;64505;51.458;7.556;2023-12-20T11:21:00;14.00;;;4.30;;
75774;SDS011;64505;51.458;7.556;2023-12-20T11:23:06;14.35;;;4.57;;
75774;SDS011;64505;51.458;7.556;2023-12-20T11:25:10;8.95;;;3.78;;
75774;SDS011;64505;51.458;7.556;2023-12-20T11:27:12;13.02;;;4.80;;
75774;SDS011;64505;51.458;7.556;2023-12-20T11:29:34;12.93;;;3.80;;
75774;SDS011;64505;51.458;7.556;2023-12-20T11:31:42;12.63;;;4.63;;
75774;SDS011;64505;51.458;7.556;2023-12-20T11:33:43;14.85;;;4.15;;
75774;SDS011;64505;51.458;7.556;2023-12-20T11:35:49;13.48;;;4.22;;
75774;SDS011;64505;51.458;7.556;2023-12-20T11:37:51;13.55;;;4.72;;
75774;SDS011;64505;51.458;7.556;2023-12-20T11:39:55;13.07;;;4.40;;
75774;SDS011;64505;51.458;7.556;2023-12-20T11:42:04;16.23;;;4.65;;
75774;SDS011;64505;51.458;7.556;2023-12-20T11:44:06;16.67;;;5.68;;
75774;SDS011;64505;51.458;7.556;2023-12-20T11:46:09;11.82;;;4.88;;
75774;SDS011;64505;51.458;7.556;2023-12-20T11:48:11;11.77;;;4.35;;
75774;SDS011;64505;51.458;7.556;2023-12-20T11:50:14;12.23;;;4.80;;
75774;SDS011;64505;51.458;7.556;2023-12-20T11:52:16;11.40;;;4.60;;
75774;SDS011;64505;51.458;7.556;2023-12-20T11:54:18;12.13;;;4.82;;
75774;SDS011;64505;51.458;7.556;2023-12-20T11:56:20;12.45;;;4.88;;
75774;SDS011;64505;51.458;7.556;2023-12-20T11:58:21;14.45;;;4.55;;
75774;SDS011;64505;51.458;7.556;2023-12-20T12:00:23;17.38;;;4.80;;
75774;SDS011;64505;51.458;7.556;2023-12-20T12:02:25;13.45;;;4.55;;
75774;SDS011;64505;51.458;7.556;2023-12-20T12:04:27;14.95;;;5.03;;
75774;SDS011;64505;51.458;7.556;2023-12-20T12:06:29;14.27;;;4.90;;
75774;SDS011;64505;51.458;7.556;2023-12-20T12:08:31;16.02;;;5.28;;